This is the latest recevied weather packets stored in our database for station/object WA4TPR. If no packets are shown the sender has not sent any weather packets the latest 10 day(s).
| Time | Temp. | Humidity | Pressure | Rain* | Wind** | Luminosity | Snow |
|---|---|---|---|---|---|---|---|
| 1777215891 | 27.22° C | 76% | 1016.2 hPa | 0 mm | - | 657 W/m² | - |
| 1777215586 | 27.22° C | 76% | 1016.3 hPa | 0 mm | - | 669 W/m² | - |
| 1777215283 | 27.22° C | 77% | 1016.3 hPa | 0 mm | - | 703 W/m² | - |
| 1777214979 | 26.67° C | 78% | 1016.6 hPa | 0 mm | - | 630 W/m² | - |
| 1777214673 | 25.56° C | 81% | 1016.4 hPa | 0 mm | - | 606 W/m² | - |
| 1777214368 | 26.11° C | 80% | 1016.4 hPa | 0 mm | - | 107 W/m² | - |
| 1777214067 | 25.56° C | 82% | 1016.5 hPa | 0 mm | - | 599 W/m² | - |
| 1777213762 | 26.11° C | 80% | 1016.3 hPa | 0 mm | - | 138 W/m² | - |
| 1777213458 | 26.11° C | 82% | 1016.7 hPa | 0 mm | - | 663 W/m² | - |
| 1777213156 | 26.11° C | 80% | 1016.5 hPa | 0 mm | - | 194 W/m² | - |
| 1777212851 | 25.56° C | 84% | 1016.6 hPa | 0 mm | - | 613 W/m² | - |
| 1777212549 | 25° C | 86% | 1016.5 hPa | 0 mm | - | 550 W/m² | - |
| 1777212242 | 25° C | 85% | 1016.3 hPa | 0 mm | - | 118 W/m² | - |
| 1777211937 | 26.11° C | 83% | 1016.3 hPa | 0 mm | - | 224 W/m² | - |
| 1777211636 | 25.56° C | 85% | 1016.4 hPa | 0 mm | - | 508 W/m² | - |
| 1777211332 | 24.44° C | 88% | 1016.4 hPa | 0 mm | - | 516 W/m² | - |
| 1777211028 | 24.44° C | 88% | 1016.4 hPa | 0 mm | - | 145 W/m² | - |
| 1777210724 | 24.44° C | 89% | 1016.3 hPa | 0 mm | - | 423 W/m² | - |
| 1777210414 | 23.89° C | 90% | 1016.2 hPa | 0 mm | - | 358 W/m² | - |
| 1777210111 | 23.89° C | 90% | 1016.3 hPa | 0 mm | - | 339 W/m² | - |
| 1777209807 | 24.44° C | 89% | 1016.4 hPa | 0 mm | - | 318 W/m² | - |
| 1777209502 | 23.89° C | 91% | 1016.5 hPa | 0 mm | - | 302 W/m² | - |
| 1777209197 | 23.89° C | 91% | 1016.6 hPa | 0 mm | - | 281 W/m² | - |
| 1777208895 | 23.33° C | 91% | 1016.5 hPa | 0 mm | - | 263 W/m² | - |
| 1777208591 | 23.33° C | 92% | 1016.2 hPa | 0 mm | - | 244 W/m² | - |
* Rain latest hour (hover to see other rain measurements)
** Current wind speed in m/s (hover to see current wind gust speed)